Aviation Digital Data Service (ADDS)

Output produced by METARs form (1130 UTC 30 October 2020)
found at http://aviationweather.gov/metar/data/
 
METAR text: KLHX 301053Z AUTO 26011KT 10SM CLR 03/01 A3021 RMK AO2 SLP207 T00330011 TSNO
Conditions at: KLHX (LA JUNTA , CO, US) observed 1053 UTC 30 October 2020
Temperature: 3.3°C (38°F)
Dewpoint: 1.1°C (34°F) [RH = 85%]
Pressure (altimeter): 30.21 inches Hg (1023.1 mb)
[Sea-level pressure: 1020.7 mb]
Winds: from the W (260 degrees) at 13 MPH (11 knots; 5.7 m/s)
Visibility: 10 or more miles (16+ km)
Ceiling: at least 12,000 feet AGL
Clouds: sky clear below 12,000 feet AGL
Weather: automated observation with no human augmentation;
there may or may not be significant weather present at this time